Terminal Aerodrome Forecast
Issued by NWS

Home | Current Version | Previous Version | Text Only | Print | Product List | Glossary On
Versions: 1 2 3 4 5 6 7 8 9 10 11 12 13 14 15 16 17 18 19 20 21 22 23 24 25 26 27 28 29 30 31 32
000
FTUS45 KGJT 062241 AAA
TAFCNY
TAF AMD
KCNY 062241Z 0623/0718 31010G20KT P6SM VCTS SCT035CB BKN060
      TEMPO 0623/0624 31025G40KT 5SM TSRA BKN035CB
     FM070000 22012G20KT P6SM VCTS SCT040CB BKN060
     FM070200 25010KT P6SM SCT060 BKN100
     FM070600 15008KT P6SM BKN150=

USA.gov is the U.S. government's official web portal to all federal, state and local government web resources and services.